Search for airport 
image banner adimage banner adimage banner ad
image banner ad

O08 - Colusa County

Located in Colusa, United States

ICAO - O08, IATA -

Data provided by Airmate  

General information

Coordinates: N39°10'44" W121°59'36"
Elevation is 49 feet MSL.
Magnetic variation is 14° East
View others Airports in California

Operational data

Special qualification required
Current time UTC:
Current local time:
Weather at : KMYV - Yuba County ( 38 km )
METAR: KMYV 211153Z AUTO 17007KT 10SM CLR 19/08 A2979 RMK AO2 SLP090 T01890083 10272 20189 53004
View NOTAMs / SUP AIP / TFR affecting this airport [VIEW]
Communications frequencies: [VIEW]

Runways:

RWY identifierQFULength (ft)Width (ft)SurfaceLDA (ft)
13151°303459ASPH
31331°303459ASPH

Airport contact information

Address: Colusa United States

Satellite view of O08